Time;durP1;ratioP1;P1;durP2;ratioP2;P2;SDS_P1;SDS_P2;PMS_P1;PMS_P2;Temp;Humidity;BMP_temperature;BMP_pressure;BME280_temperature;BME280_humidity;BME280_pressure;Samples;Min_cycle;Max_cycle;Signal;HPM_P1;HPM_P2
2021/10/24 00:03:59;;;;;;;7.43;5.07;;;8.40;99.90;;;;;;10203210;29;20228;-83
2021/10/24 00:09:04;;;;;;;4.97;4.57;;;8.30;99.90;;;;;;10185708;29;20233;-83
2021/10/24 00:14:07;;;;;;;4.80;4.30;;;8.30;99.90;;;;;;10188178;29;20205;-83
2021/10/24 00:19:09;;;;;;;5.67;4.87;;;8.20;99.90;;;;;;10209920;29;20241;-83
2021/10/24 00:24:13;;;;;;;5.53;4.77;;;8.20;99.90;;;;;;10194007;29;20210;-83
2021/10/24 00:29:15;;;;;;;5.10;4.60;;;8.20;99.90;;;;;;10193869;29;20229;-83
2021/10/24 00:34:17;;;;;;;6.47;4.30;;;8.20;99.90;;;;;;10184480;29;20239;-83
2021/10/24 00:39:21;;;;;;;6.80;5.37;;;8.20;99.90;;;;;;10190336;29;20710;-83
2021/10/24 00:44:27;;;;;;;4.60;4.20;;;8.20;99.90;;;;;;10190621;29;20198;-83
2021/10/24 00:49:29;;;;;;;4.97;4.57;;;8.20;99.90;;;;;;10176182;29;20600;-82
2021/10/24 00:54:34;;;;;;;6.17;4.67;;;8.10;99.90;;;;;;10180807;29;20213;-82
2021/10/24 00:59:38;;;;;;;4.80;4.13;;;8.10;99.90;;;;;;10174882;29;20394;-82
2021/10/24 01:04:40;;;;;;;5.17;4.10;;;8.00;99.90;;;;;;10162694;29;20682;-83
2021/10/24 01:09:46;;;;;;;3.97;3.67;;;8.00;99.90;;;;;;10196901;29;20222;-82
2021/10/24 01:14:48;;;;;;;7.10;4.97;;;8.00;99.90;;;;;;10176181;29;20301;-82
2021/10/24 01:19:50;;;;;;;6.37;4.30;;;8.00;99.90;;;;;;10176503;29;20601;-82
2021/10/24 01:24:53;;;;;;;4.80;4.40;;;8.00;99.90;;;;;;10178662;29;20237;-82
2021/10/24 01:29:56;;;;;;;4.97;4.13;;;8.00;99.90;;;;;;10177931;29;20718;-82
2021/10/24 01:34:59;;;;;;;4.80;4.20;;;7.90;99.90;;;;;;10192930;29;20280;-82
2021/10/24 01:40:06;;;;;;;4.57;4.07;;;7.80;99.90;;;;;;10183065;29;20222;-82
2021/10/24 01:45:09;;;;;;;5.27;4.50;;;7.80;99.90;;;;;;10198153;29;20206;-82
2021/10/24 01:50:13;;;;;;;5.93;5.00;;;7.80;99.90;;;;;;10196023;29;20265;-81
2021/10/24 01:55:17;;;;;;;4.43;4.13;;;7.80;99.90;;;;;;10178238;29;20202;-82
2021/10/24 02:00:22;;;;;;;4.70;4.30;;;7.70;99.90;;;;;;10193222;29;20790;-82
2021/10/24 02:05:28;;;;;;;6.27;5.70;;;7.70;99.90;;;;;;10193732;29;20186;-82
2021/10/24 02:10:32;;;;;;;6.67;6.03;;;7.70;99.90;;;;;;10193719;29;20232;-82
2021/10/24 02:15:36;;;;;;;6.40;5.20;;;7.70;99.90;;;;;;10177112;29;20637;-82
2021/10/24 02:20:39;;;;;;;7.90;5.00;;;7.60;99.90;;;;;;10179501;29;20221;-82
2021/10/24 02:25:44;;;;;;;6.87;5.30;;;7.60;99.90;;;;;;10176984;29;20206;-81
2021/10/24 02:30:47;;;;;;;6.93;5.70;;;7.60;99.90;;;;;;10177597;29;20229;-82
2021/10/24 02:36:08;;;;;;;5.90;5.30;;;7.60;99.90;;;;;;10193360;29;20194;-82
2021/10/24 02:41:12;;;;;;;5.10;4.70;;;7.50;99.90;;;;;;10176631;29;20218;-82
2021/10/24 02:46:14;;;;;;;5.93;5.43;;;7.50;99.90;;;;;;10175427;29;20214;-82
2021/10/24 02:51:17;;;;;;;6.90;5.50;;;7.50;99.90;;;;;;10177408;29;20234;-82
2021/10/24 02:56:20;;;;;;;6.93;5.83;;;7.50;99.90;;;;;;10168478;29;20294;-82
2021/10/24 03:01:23;;;;;;;8.20;7.40;;;7.40;99.90;;;;;;10155956;29;20218;-82
2021/10/24 03:06:25;;;;;;;9.60;8.60;;;7.40;99.90;;;;;;10170791;29;20191;-82
2021/10/24 03:11:33;;;;;;;7.40;6.27;;;7.40;99.90;;;;;;10143448;29;20234;-82
2021/10/24 03:16:35;;;;;;;5.50;4.80;;;7.30;99.90;;;;;;10139274;29;20203;-82
2021/10/24 03:21:37;;;;;;;8.47;7.77;;;7.40;99.90;;;;;;10155507;29;20222;-82
2021/10/24 03:26:40;;;;;;;8.27;5.30;;;7.30;99.90;;;;;;10141049;29;20292;-82
2021/10/24 03:31:46;;;;;;;5.67;5.17;;;7.30;99.90;;;;;;10140148;29;20261;-82
2021/10/24 03:36:48;;;;;;;5.50;4.90;;;7.30;99.90;;;;;;10138526;29;20238;-82
2021/10/24 03:41:51;;;;;;;7.43;4.53;;;7.30;99.90;;;;;;10119365;29;20616;-82
2021/10/24 03:46:54;;;;;;;4.87;4.30;;;7.30;99.90;;;;;;10134210;29;20530;-83
2021/10/24 03:51:56;;;;;;;7.80;5.60;;;7.30;99.90;;;;;;10125488;29;20641;-83
2021/10/24 03:57:01;;;;;;;6.50;4.57;;;7.30;99.90;;;;;;10156265;29;20235;-82
2021/10/24 04:02:03;;;;;;;5.37;4.87;;;7.30;99.90;;;;;;10158552;29;20247;-83
2021/10/24 04:07:06;;;;;;;5.77;5.10;;;7.20;99.90;;;;;;10124350;29;20615;-83
2021/10/24 04:12:09;;;;;;;5.20;4.70;;;7.20;99.90;;;;;;10140307;29;20297;-83
2021/10/24 04:17:12;;;;;;;5.37;4.87;;;7.20;99.90;;;;;;10139461;29;20207;-83
2021/10/24 04:22:19;;;;;;;5.27;4.83;;;7.20;99.90;;;;;;10139674;29;20234;-83
2021/10/24 04:27:23;;;;;;;5.37;4.63;;;7.30;99.90;;;;;;10139742;29;20217;-82
2021/10/24 04:32:26;;;;;;;6.37;4.60;;;7.30;99.90;;;;;;10139608;29;20242;-83
2021/10/24 04:37:30;;;;;;;7.80;6.10;;;7.30;99.90;;;;;;10143483;29;20215;-83
2021/10/24 04:42:35;;;;;;;6.97;5.67;;;7.30;99.90;;;;;;10138471;29;20286;-83
2021/10/24 04:47:37;;;;;;;6.17;5.63;;;7.20;99.90;;;;;;10146742;29;20194;-83
2021/10/24 04:52:40;;;;;;;6.33;5.73;;;7.30;99.90;;;;;;10113214;29;20249;-83
2021/10/24 04:57:44;;;;;;;6.50;5.90;;;7.30;99.90;;;;;;10126988;29;20211;-83
2021/10/24 05:02:46;;;;;;;10.83;6.20;;;7.20;99.90;;;;;;10141287;29;20218;-83
2021/10/24 05:07:48;;;;;;;7.30;6.40;;;7.20;99.90;;;;;;10144150;29;20813;-82
2021/10/24 05:12:52;;;;;;;5.70;5.10;;;7.20;99.90;;;;;;10117017;29;20759;-82
2021/10/24 05:17:54;;;;;;;7.87;6.37;;;7.10;99.90;;;;;;10144297;29;20239;-82
2021/10/24 05:22:56;;;;;;;11.57;6.90;;;7.10;99.90;;;;;;10126790;29;20773;-82
2021/10/24 05:28:00;;;;;;;8.57;6.07;;;7.00;99.90;;;;;;10145352;29;20207;-82
2021/10/24 05:33:02;;;;;;;6.67;5.97;;;7.00;99.90;;;;;;10121602;29;20327;-82
2021/10/24 05:38:12;;;;;;;5.47;4.60;;;7.00;99.90;;;;;;10140600;29;20211;-82
2021/10/24 05:43:28;;;;;;;5.50;5.00;;;7.00;99.90;;;;;;10124022;29;20644;-83
2021/10/24 05:48:30;;;;;;;5.60;5.03;;;7.00;99.90;;;;;;10123788;29;20214;-82
2021/10/24 05:53:41;;;;;;;7.10;6.27;;;7.00;99.90;;;;;;10137826;29;20220;-82
2021/10/24 05:58:52;;;;;;;7.17;6.40;;;7.00;99.90;;;;;;10178572;29;20228;-83
2021/10/24 06:04:23;;;;;;;8.70;8.00;;;6.90;99.90;;;;;;10141093;29;20203;-82
2021/10/24 06:09:53;;;;;;;6.27;5.77;;;6.90;99.90;;;;;;10141226;29;20223;-83
2021/10/24 06:14:57;;;;;;;8.30;7.50;;;7.00;99.90;;;;;;10139029;29;20214;-82
2021/10/24 06:19:59;;;;;;;15.50;14.00;;;6.90;99.90;;;;;;10122055;29;20278;-82
2021/10/24 06:25:01;;;;;;;5.70;5.30;;;7.00;99.90;;;;;;10122762;29;20690;-83
2021/10/24 06:30:11;;;;;;;5.80;5.20;;;7.00;99.90;;;;;;10136802;29;20287;-83
2021/10/24 06:35:32;;;;;;;5.47;5.07;;;7.00;99.90;;;;;;10140701;29;20202;-83
2021/10/24 06:41:09;;;;;;;5.40;4.90;;;7.00;99.90;;;;;;10091452;29;20237;-83
2021/10/24 06:46:19;;;;;;;5.03;4.63;;;7.00;99.90;;;;;;10136236;29;20207;-83
2021/10/24 06:51:40;;;;;;;7.00;4.70;;;7.00;99.90;;;;;;10148984;29;20603;-82
2021/10/24 06:57:01;;;;;;;5.67;5.17;;;7.00;99.90;;;;;;10181745;29;20194;-82
2021/10/24 07:02:23;;;;;;;6.60;5.20;;;7.00;99.90;;;;;;10183193;29;20252;-82
2021/10/24 07:07:44;;;;;;;5.83;5.30;;;7.10;99.90;;;;;;10178350;29;20293;-82
2021/10/24 07:12:51;;;;;;;5.93;5.43;;;7.10;99.90;;;;;;10159913;29;20233;-82
2021/10/24 07:17:55;;;;;;;5.77;5.23;;;7.20;99.90;;;;;;10166273;29;20257;-83
2021/10/24 07:22:58;;;;;;;7.80;5.93;;;7.30;99.90;;;;;;10147349;29;20684;-82
2021/10/24 07:28:19;;;;;;;6.90;5.00;;;7.40;99.90;;;;;;10153304;29;20210;-82
2021/10/24 07:33:23;;;;;;;5.90;5.40;;;7.40;99.90;;;;;;10133930;29;20237;-82
2021/10/24 07:38:42;;;;;;;6.17;5.63;;;7.50;99.90;;;;;;10149936;29;20278;-82
2021/10/24 07:43:45;;;;;;;8.67;6.17;;;7.50;99.90;;;;;;10152161;29;20210;-82
2021/10/24 07:48:48;;;;;;;6.63;5.93;;;7.60;99.90;;;;;;10138157;29;20230;-82
2021/10/24 07:53:53;;;;;;;8.40;7.60;;;7.70;99.90;;;;;;10132154;29;20594;-82
2021/10/24 07:58:57;;;;;;;7.80;7.13;;;7.80;99.90;;;;;;10142014;29;20593;-82
2021/10/24 08:04:05;;;;;;;8.43;7.37;;;7.90;99.90;;;;;;10145228;29;20679;-82
2021/10/24 08:09:13;;;;;;;9.17;8.27;;;7.90;99.90;;;;;;10147630;29;20218;-83
2021/10/24 08:14:19;;;;;;;9.57;8.20;;;8.00;99.90;;;;;;10159617;29;20298;-82
2021/10/24 08:19:24;;;;;;;8.53;7.70;;;8.10;99.90;;;;;;10146698;29;20219;-82
2021/10/24 08:24:33;;;;;;;8.53;7.73;;;8.20;99.90;;;;;;10166324;29;20206;-82
2021/10/24 08:29:51;;;;;;;8.83;7.93;;;8.40;99.90;;;;;;10163342;29;20712;-82
2021/10/24 08:35:22;;;;;;;8.47;7.60;;;8.50;99.90;;;;;;10123054;29;20614;-82
2021/10/24 08:40:26;;;;;;;9.20;8.40;;;8.60;99.90;;;;;;10144067;29;20219;-82
2021/10/24 08:45:29;;;;;;;11.63;8.90;;;8.70;99.90;;;;;;10155776;29;20286;-82
2021/10/24 08:50:33;;;;;;;9.73;8.90;;;8.80;99.90;;;;;;10134804;29;20235;-82
2021/10/24 08:55:36;;;;;;;11.10;9.00;;;9.00;99.90;;;;;;10153284;29;20207;-83
2021/10/24 09:00:39;;;;;;;11.13;10.10;;;9.10;99.90;;;;;;10133769;29;20224;-82
2021/10/24 09:05:44;;;;;;;11.67;10.47;;;9.30;99.90;;;;;;10175166;29;20187;-82
2021/10/24 09:10:49;;;;;;;11.83;10.80;;;9.40;99.90;;;;;;10126081;29;20222;-82
2021/10/24 09:15:54;;;;;;;10.07;9.17;;;9.50;99.90;;;;;;10125381;29;20306;-82
2021/10/24 09:20:59;;;;;;;11.10;9.30;;;9.60;99.90;;;;;;10141288;29;20784;-82
2021/10/24 09:26:01;;;;;;;12.30;10.00;;;9.80;99.90;;;;;;10144102;29;20620;-82
2021/10/24 09:31:05;;;;;;;9.50;8.60;;;9.90;99.90;;;;;;10137862;29;20279;-81
2021/10/24 09:36:09;;;;;;;9.00;8.20;;;10.00;99.90;;;;;;10158200;29;20202;-82
2021/10/24 09:41:33;;;;;;;9.13;8.37;;;10.10;99.90;;;;;;10143530;29;20222;-82
2021/10/24 09:46:37;;;;;;;9.50;8.50;;;10.20;99.90;;;;;;10140939;29;20213;-83
2021/10/24 09:51:40;;;;;;;9.60;8.67;;;10.30;99.90;;;;;;10153842;29;20295;-82
2021/10/24 09:56:43;;;;;;;9.93;9.17;;;10.40;99.90;;;;;;10141872;29;20210;-83
2021/10/24 10:01:46;;;;;;;9.87;8.97;;;10.50;99.90;;;;;;10127207;29;20222;-83
2021/10/24 10:06:52;;;;;;;9.73;8.77;;;10.50;99.90;;;;;;10140465;29;20711;-81
2021/10/24 10:11:57;;;;;;;8.50;7.70;;;10.60;99.90;;;;;;10149569;29;20257;-81
2021/10/24 10:17:03;;;;;;;8.47;7.67;;;10.70;99.90;;;;;;10157299;29;20305;-82
2021/10/24 10:22:27;;;;;;;8.07;7.03;;;10.70;99.90;;;;;;10171371;29;20261;-82
2021/10/24 10:27:41;;;;;;;6.40;5.80;;;10.80;99.90;;;;;;10132796;29;20211;-82
2021/10/24 10:33:04;;;;;;;6.50;5.90;;;10.80;99.90;;;;;;10128926;29;20265;-82
2021/10/24 10:38:08;;;;;;;8.20;5.70;;;10.90;99.90;;;;;;10123675;29;20218;-81
2021/10/24 10:43:12;;;;;;;6.50;5.90;;;10.90;99.90;;;;;;10132141;29;20215;-81
2021/10/24 10:48:42;;;;;;;7.50;5.80;;;11.00;99.90;;;;;;10103035;29;20226;-82
2021/10/24 10:54:00;;;;;;;5.97;5.57;;;11.00;99.90;;;;;;10108944;29;20263;-82
2021/10/24 10:59:09;;;;;;;6.40;5.90;;;11.10;99.90;;;;;;10138962;29;20226;-82
2021/10/24 11:04:19;;;;;;;6.20;5.70;;;11.20;99.90;;;;;;10121570;29;20280;-82
2021/10/24 11:09:47;;;;;;;6.73;5.67;;;11.30;99.90;;;;;;10123239;29;20226;-83
2021/10/24 11:14:49;;;;;;;6.37;5.87;;;11.30;99.90;;;;;;10120619;29;20676;-82
2021/10/24 11:19:51;;;;;;;8.03;7.20;;;11.40;99.90;;;;;;10140602;29;20293;-82
2021/10/24 11:24:56;;;;;;;6.93;6.27;;;11.50;99.90;;;;;;10150580;29;20205;-82
2021/10/24 11:30:00;;;;;;;6.07;5.03;;;11.60;99.90;;;;;;10145756;29;20226;-82
2021/10/24 11:35:04;;;;;;;5.50;5.10;;;11.60;99.90;;;;;;10146155;29;20223;-82
2021/10/24 11:40:14;;;;;;;6.70;6.00;;;11.60;99.90;;;;;;10157352;29;20214;-83
2021/10/24 11:45:18;;;;;;;6.10;5.50;;;11.60;99.90;;;;;;10138609;29;20207;-83
2021/10/24 11:50:41;;;;;;;6.23;5.63;;;11.70;99.90;;;;;;10140966;29;20297;-83
2021/10/24 11:55:49;;;;;;;6.53;5.93;;;11.80;99.90;;;;;;10182449;29;20209;-83
2021/10/24 12:01:03;;;;;;;6.57;5.87;;;11.90;99.90;;;;;;10166387;29;20214;-82
2021/10/24 12:06:06;;;;;;;6.07;5.50;;;11.90;99.90;;;;;;10166567;29;20254;-83
2021/10/24 12:11:13;;;;;;;6.40;5.90;;;11.90;99.90;;;;;;10174876;29;20229;-82
2021/10/24 12:16:26;;;;;;;6.10;5.50;;;11.90;99.90;;;;;;10178111;29;20391;-82
2021/10/24 12:21:28;;;;;;;6.17;5.70;;;12.00;99.90;;;;;;10149943;29;20702;-82
2021/10/24 12:26:34;;;;;;;5.80;5.30;;;12.10;99.90;;;;;;10107813;29;20293;-83
2021/10/24 12:31:37;;;;;;;5.93;5.43;;;12.10;99.90;;;;;;10122621;29;20659;-83
2021/10/24 12:36:39;;;;;;;6.60;6.10;;;12.20;99.90;;;;;;10106411;29;20638;-82
2021/10/24 12:41:45;;;;;;;5.50;5.00;;;12.20;99.90;;;;;;10135002;29;20227;-83
2021/10/24 12:46:47;;;;;;;5.13;4.73;;;12.30;99.90;;;;;;10134688;29;20199;-82
2021/10/24 12:51:51;;;;;;;6.00;5.50;;;12.30;99.90;;;;;;10138734;29;20223;-82
2021/10/24 12:56:54;;;;;;;5.33;4.90;;;12.40;99.90;;;;;;10142563;29;20209;-82
2021/10/24 13:02:00;;;;;;;5.43;5.03;;;12.40;99.90;;;;;;10123143;29;20222;-82
2021/10/24 13:07:02;;;;;;;5.93;5.33;;;12.50;99.90;;;;;;10139911;29;20664;-82
2021/10/24 13:12:06;;;;;;;5.73;5.33;;;12.50;99.90;;;;;;10139249;29;20222;-83
2021/10/24 13:17:09;;;;;;;5.47;4.97;;;12.60;99.90;;;;;;10123339;29;20202;-83
2021/10/24 13:27:32;;;;;;;7.50;6.30;;;12.60;99.90;;;;;;10123995;29;20206;-82
2021/10/24 13:32:34;;;;;;;7.53;6.20;;;12.60;99.90;;;;;;10135998;29;20279;-82
2021/10/24 13:37:36;;;;;;;6.07;5.67;;;12.70;99.90;;;;;;10121670;29;20305;-82
2021/10/24 13:42:41;;;;;;;8.03;7.23;;;12.80;99.90;;;;;;10138873;29;20246;-83
2021/10/24 13:47:44;;;;;;;7.20;6.60;;;12.80;99.90;;;;;;10124373;29;20209;-83
2021/10/24 13:52:46;;;;;;;6.13;5.53;;;12.80;99.90;;;;;;10138796;29;20737;-82
2021/10/24 13:57:49;;;;;;;7.30;6.60;;;12.80;99.90;;;;;;10149712;29;20221;-83
2021/10/24 14:02:55;;;;;;;7.10;6.40;;;12.90;99.90;;;;;;10137684;29;20219;-83
2021/10/24 14:08:00;;;;;;;6.40;5.80;;;12.90;99.90;;;;;;10154329;29;20264;-83
2021/10/24 14:13:04;;;;;;;6.33;5.90;;;12.90;99.90;;;;;;10135668;29;20222;-83
2021/10/24 14:18:14;;;;;;;6.13;5.63;;;13.00;99.90;;;;;;10118892;29;20206;-84
2021/10/24 14:23:21;;;;;;;6.50;5.90;;;13.00;99.90;;;;;;10120589;29;20238;-84
2021/10/24 14:28:24;;;;;;;6.50;5.83;;;13.00;99.90;;;;;;10119450;29;20218;-83
2021/10/24 14:33:26;;;;;;;4.80;4.40;;;13.00;99.90;;;;;;10117937;29;20695;-83
2021/10/24 14:38:28;;;;;;;4.97;4.47;;;13.10;99.90;;;;;;10133207;29;20678;-83
2021/10/24 14:43:32;;;;;;;4.47;4.07;;;13.10;99.90;;;;;;10131526;29;20195;-83
2021/10/24 14:48:34;;;;;;;5.17;4.33;;;13.10;99.90;;;;;;10117577;29;20579;-83
2021/10/24 14:53:36;;;;;;;8.33;6.27;;;13.10;99.90;;;;;;10146017;29;20245;-82
2021/10/24 14:58:40;;;;;;;4.50;4.20;;;13.00;99.90;;;;;;10140905;29;20210;-83
2021/10/24 15:03:42;;;;;;;4.20;3.90;;;13.00;99.90;;;;;;10171586;29;20550;-83
2021/10/24 15:08:44;;;;;;;6.43;4.50;;;12.90;99.90;;;;;;10171904;29;20228;-83
2021/10/24 15:13:48;;;;;;;4.70;4.17;;;12.80;99.90;;;;;;10171684;29;20222;-83
2021/10/24 15:24:15;;;;;;;5.63;5.13;;;12.70;99.90;;;;;;10119216;29;20274;-83
2021/10/24 15:29:18;;;;;;;5.10;4.70;;;12.70;99.90;;;;;;10132370;29;20683;-83
2021/10/24 15:34:20;;;;;;;6.10;4.50;;;12.60;99.90;;;;;;10132746;29;20222;-83
2021/10/24 15:39:22;;;;;;;5.53;5.03;;;12.50;99.90;;;;;;10131712;29;20222;-84
2021/10/24 15:44:26;;;;;;;4.90;4.50;;;12.40;99.90;;;;;;10115279;29;20234;-83
2021/10/24 15:49:29;;;;;;;5.03;4.13;;;12.40;99.90;;;;;;10116583;29;20226;-83
2021/10/24 15:54:31;;;;;;;5.50;5.10;;;12.30;99.90;;;;;;10152557;29;20246;-83
2021/10/24 15:59:35;;;;;;;5.13;4.67;;;12.20;99.90;;;;;;10135185;29;20651;-83
2021/10/24 16:04:37;;;;;;;4.57;4.27;;;12.20;99.90;;;;;;10138748;29;20569;-83
2021/10/24 16:09:39;;;;;;;9.43;4.90;;;12.10;99.90;;;;;;10155906;29;20260;-83
2021/10/24 16:14:43;;;;;;;5.90;5.40;;;12.00;99.90;;;;;;10154756;29;20248;-83
2021/10/24 16:19:45;;;;;;;5.73;5.20;;;11.90;99.90;;;;;;10166448;29;20293;-82
2021/10/24 16:24:47;;;;;;;5.47;4.93;;;11.90;99.90;;;;;;10146611;29;20695;-82
2021/10/24 16:29:51;;;;;;;5.90;5.27;;;11.80;99.90;;;;;;10149385;29;20223;-82
2021/10/24 16:34:53;;;;;;;6.73;5.60;;;11.70;99.90;;;;;;10099354;29;20507;-83
2021/10/24 16:39:55;;;;;;;8.63;7.53;;;11.70;99.90;;;;;;10115260;29;20829;-83
2021/10/24 16:44:58;;;;;;;9.37;8.50;;;11.70;99.90;;;;;;10131193;29;20574;-83
2021/10/24 16:50:01;;;;;;;8.80;7.87;;;11.70;99.90;;;;;;10116049;29;20234;-83
2021/10/24 16:55:03;;;;;;;8.67;7.83;;;11.70;99.90;;;;;;10171468;29;20619;-82
2021/10/24 17:00:09;;;;;;;8.43;7.60;;;11.60;99.90;;;;;;10178530;29;20786;-82
2021/10/24 17:05:13;;;;;;;8.73;7.90;;;11.60;99.90;;;;;;10158984;29;20198;-82
2021/10/24 17:10:15;;;;;;;8.87;7.97;;;11.60;99.90;;;;;;10157171;29;20276;-82
2021/10/24 17:15:18;;;;;;;11.60;7.90;;;11.60;99.90;;;;;;10132929;29;20306;-82
2021/10/24 17:20:22;;;;;;;9.50;7.97;;;11.50;99.90;;;;;;10175256;29;20285;-82
2021/10/24 17:25:24;;;;;;;8.73;7.87;;;11.50;99.90;;;;;;10148354;29;20202;-82
2021/10/24 17:30:28;;;;;;;11.10;8.17;;;11.40;99.90;;;;;;10166993;29;20222;-83
2021/10/24 17:35:32;;;;;;;8.50;7.80;;;11.40;99.90;;;;;;10146438;29;20214;-82
2021/10/24 17:40:35;;;;;;;8.70;8.00;;;11.30;99.90;;;;;;10139737;29;20585;-82
2021/10/24 17:45:39;;;;;;;7.93;7.30;;;11.20;99.90;;;;;;10150412;29;20206;-82
2021/10/24 17:50:41;;;;;;;10.00;9.20;;;11.10;99.90;;;;;;10162663;29;20309;-82
2021/10/24 17:55:44;;;;;;;9.23;7.70;;;11.00;99.90;;;;;;10137763;29;20254;-82
2021/10/24 18:00:47;;;;;;;10.03;9.13;;;10.90;99.90;;;;;;10165601;29;20265;-82
2021/10/24 18:05:49;;;;;;;12.57;11.27;;;10.90;99.90;;;;;;10172331;29;20221;-82
2021/10/24 18:10:51;;;;;;;10.83;10.03;;;10.80;99.90;;;;;;10172209;29;20232;-82
2021/10/24 18:15:55;;;;;;;14.83;13.43;;;10.70;99.90;;;;;;10159361;29;20322;-82
2021/10/24 18:20:57;;;;;;;14.57;12.43;;;10.70;99.90;;;;;;10150977;29;20231;-82
2021/10/24 18:26:00;;;;;;;16.80;15.20;;;10.60;99.90;;;;;;10156405;29;20204;-82
2021/10/24 18:31:04;;;;;;;19.73;17.70;;;10.60;99.90;;;;;;10142259;29;20635;-82
2021/10/24 18:36:06;;;;;;;11.37;10.33;;;10.50;99.90;;;;;;10149335;29;20577;-82
2021/10/24 18:41:08;;;;;;;10.77;9.93;;;10.50;99.90;;;;;;10174273;29;20783;-82
2021/10/24 18:46:12;;;;;;;13.97;12.00;;;10.50;99.90;;;;;;10164784;29;20198;-82
2021/10/24 18:51:14;;;;;;;14.33;12.83;;;10.40;99.90;;;;;;10138510;29;20230;-82
2021/10/24 18:56:17;;;;;;;16.53;12.63;;;10.30;99.90;;;;;;10138252;29;20295;-82
2021/10/24 19:01:21;;;;;;;12.50;11.30;;;10.30;99.90;;;;;;10136044;29;20948;-82
2021/10/24 19:06:23;;;;;;;12.00;10.97;;;10.30;99.90;;;;;;10173273;29;20290;-81
2021/10/24 19:11:25;;;;;;;12.23;11.07;;;10.30;99.90;;;;;;10175076;29;20228;-82
2021/10/24 19:16:28;;;;;;;11.10;10.07;;;10.20;99.90;;;;;;10157034;29;20258;-82
2021/10/24 19:21:30;;;;;;;12.43;11.30;;;10.20;99.90;;;;;;10133456;29;20233;-82
2021/10/24 19:26:35;;;;;;;12.13;10.53;;;10.20;99.90;;;;;;10176518;29;20202;-82
2021/10/24 19:31:38;;;;;;;11.03;10.03;;;10.10;99.90;;;;;;10144198;29;20706;-82
2021/10/24 19:36:40;;;;;;;12.10;10.87;;;10.10;99.90;;;;;;10153717;29;20586;-82
2021/10/24 19:41:42;;;;;;;11.87;10.70;;;10.10;99.90;;;;;;10119515;29;20227;-82
2021/10/24 19:46:46;;;;;;;13.83;12.40;;;10.10;99.90;;;;;;10134218;29;20203;-82
2021/10/24 19:51:48;;;;;;;11.50;9.87;;;10.10;99.90;;;;;;10135065;29;20234;-82
2021/10/24 19:56:50;;;;;;;11.70;10.60;;;10.10;99.90;;;;;;10137089;29;20220;-82
2021/10/24 20:01:53;;;;;;;10.80;9.90;;;10.00;99.90;;;;;;10120786;29;20287;-82
2021/10/24 20:06:55;;;;;;;11.40;10.43;;;10.00;99.90;;;;;;10161242;29;20216;-82
2021/10/24 20:11:58;;;;;;;11.87;10.57;;;9.90;99.90;;;;;;10156878;29;20595;-82
2021/10/24 20:17:01;;;;;;;11.73;10.53;;;9.80;99.90;;;;;;10154065;29;20203;-81
2021/10/24 20:22:09;;;;;;;12.33;11.20;;;9.70;99.90;;;;;;10158198;29;20313;-83
2021/10/24 20:27:12;;;;;;;13.20;12.00;;;9.70;99.90;;;;;;10143306;29;20202;-83
2021/10/24 20:32:15;;;;;;;13.63;12.33;;;9.60;99.90;;;;;;10104576;29;20736;-82
2021/10/24 20:37:17;;;;;;;13.10;11.90;;;9.60;99.90;;;;;;10169991;29;20198;-82
2021/10/24 20:42:20;;;;;;;10.87;9.87;;;9.50;99.90;;;;;;10143415;29;20304;-82
2021/10/24 20:47:30;;;;;;;12.80;11.50;;;9.50;99.90;;;;;;10134020;29;20266;-83
2021/10/24 20:52:32;;;;;;;13.77;12.37;;;9.50;99.90;;;;;;10161582;29;20290;-82
2021/10/24 20:57:42;;;;;;;12.03;10.83;;;9.50;99.90;;;;;;10180913;29;20202;-82
2021/10/24 21:02:46;;;;;;;12.50;11.50;;;9.40;99.90;;;;;;10163352;29;20229;-82
2021/10/24 21:07:56;;;;;;;13.43;12.00;;;9.40;99.90;;;;;;10163562;29;20206;-82
2021/10/24 21:12:58;;;;;;;15.73;14.23;;;9.40;99.90;;;;;;10163121;29;20226;-82
2021/10/24 21:18:03;;;;;;;15.07;13.57;;;9.30;99.90;;;;;;10178716;29;20658;-83
2021/10/24 21:23:05;;;;;;;14.23;12.83;;;9.30;99.90;;;;;;10152645;29;20229;-82
2021/10/24 21:28:07;;;;;;;16.20;14.50;;;9.30;99.90;;;;;;10123253;29;20202;-82
2021/10/24 21:33:11;;;;;;;14.77;13.37;;;9.20;99.90;;;;;;10122638;29;20237;-83
2021/10/24 21:38:13;;;;;;;14.43;13.03;;;9.20;99.90;;;;;;10138927;29;20225;-83
2021/10/24 21:43:15;;;;;;;14.27;12.87;;;9.20;99.90;;;;;;10136259;29;20210;-82
2021/10/24 21:48:19;;;;;;;13.67;12.37;;;9.20;99.90;;;;;;10138622;29;20190;-83
2021/10/24 21:53:21;;;;;;;15.00;12.27;;;9.10;99.90;;;;;;10148062;29;20237;-83
2021/10/24 21:58:23;;;;;;;14.03;12.73;;;9.10;99.90;;;;;;10177565;29;20198;-82
2021/10/24 22:03:26;;;;;;;10.33;9.50;;;9.10;99.90;;;;;;10160582;29;20245;-82
2021/10/24 22:08:28;;;;;;;13.57;12.30;;;9.10;99.90;;;;;;10159860;29;20216;-83
2021/10/24 22:13:40;;;;;;;14.43;13.03;;;9.00;99.90;;;;;;10159923;29;20229;-83
2021/10/24 22:18:49;;;;;;;13.33;12.13;;;9.00;99.90;;;;;;10159474;29;20221;-83
2021/10/24 22:23:51;;;;;;;12.93;11.73;;;9.00;99.90;;;;;;10129427;29;20301;-82
2021/10/24 22:28:59;;;;;;;13.60;12.30;;;9.00;99.90;;;;;;10135665;29;20231;-82
2021/10/24 22:34:05;;;;;;;14.20;12.87;;;9.00;99.90;;;;;;10119430;29;20222;-82
2021/10/24 22:39:07;;;;;;;13.40;12.00;;;9.00;99.90;;;;;;10135461;29;20226;-82
2021/10/24 22:44:09;;;;;;;14.17;12.67;;;9.00;99.90;;;;;;10135160;29;20281;-83
2021/10/24 22:49:13;;;;;;;13.30;11.90;;;8.90;99.90;;;;;;10120510;29;20245;-82
2021/10/24 22:54:16;;;;;;;14.10;12.40;;;9.00;99.90;;;;;;10150882;29;20329;-82
2021/10/24 22:59:19;;;;;;;13.27;12.07;;;8.90;99.90;;;;;;10150443;29;20236;-82
2021/10/24 23:04:22;;;;;;;13.80;12.70;;;8.90;99.90;;;;;;10131979;29;20228;-82
2021/10/24 23:09:24;;;;;;;11.77;10.70;;;8.90;99.90;;;;;;10130812;29;20249;-82
2021/10/24 23:14:27;;;;;;;12.60;11.50;;;8.90;99.90;;;;;;10133279;29;20612;-82
2021/10/24 23:19:30;;;;;;;12.30;11.37;;;8.90;99.90;;;;;;10133906;29;20230;-82
2021/10/24 23:24:32;;;;;;;13.47;12.27;;;8.80;99.90;;;;;;10170666;29;20217;-82
2021/10/24 23:29:36;;;;;;;13.13;12.03;;;8.80;99.90;;;;;;10189804;29;20285;-82
2021/10/24 23:34:40;;;;;;;13.50;12.20;;;8.80;99.90;;;;;;10174060;29;20233;-82
2021/10/24 23:39:42;;;;;;;12.77;11.77;;;8.80;99.90;;;;;;10190432;29;20281;-82
2021/10/24 23:44:44;;;;;;;11.90;10.77;;;8.80;99.90;;;;;;10191853;29;20259;-82
2021/10/24 23:49:48;;;;;;;12.07;11.07;;;8.80;99.90;;;;;;10189597;29;20226;-81
2021/10/24 23:54:51;;;;;;;12.20;11.07;;;8.80;99.90;;;;;;10151985;29;20219;-82
2021/10/24 23:59:53;;;;;;;13.03;11.60;;;8.80;99.90;;;;;;10149337;29;20226;-82
